createdAt,value
2022-09-06T00:00:32.319Z,45.16
2022-09-06T00:03:02.251Z,45.25
2022-09-06T00:05:31.883Z,45.56
2022-09-06T00:08:00.776Z,45.31
2022-09-06T00:10:31.731Z,45.35
2022-09-06T00:13:03.507Z,45.46
2022-09-06T00:15:32.643Z,45.53
2022-09-06T00:18:02.892Z,45.69
2022-09-06T00:20:32.344Z,45.50
2022-09-06T00:23:02.847Z,45.38
2022-09-06T00:25:34.220Z,46.02
2022-09-06T00:28:05.621Z,46.12
2022-09-06T00:30:35.246Z,46.66
2022-09-06T00:33:03.994Z,46.15
2022-09-06T00:35:32.660Z,46.13
2022-09-06T00:38:02.967Z,45.97
2022-09-06T00:40:36.276Z,45.90
2022-09-06T00:43:04.916Z,45.87
2022-09-06T00:45:34.036Z,46.03
2022-09-06T00:48:05.737Z,46.21
2022-09-06T00:50:34.579Z,45.98
2022-09-06T00:53:03.379Z,46.42
2022-09-06T00:55:34.024Z,46.32
2022-09-06T00:58:02.842Z,46.56
2022-09-06T01:00:31.530Z,46.36
2022-09-06T01:03:00.668Z,46.45
2022-09-06T01:05:40.086Z,46.81
2022-09-06T01:08:16.544Z,46.71
2022-09-06T01:11:02.165Z,46.93
2022-09-06T01:13:39.748Z,46.85
2022-09-06T01:16:15.343Z,47.09
2022-09-06T01:18:57.620Z,47.18
2022-09-06T01:21:38.972Z,46.83
2022-09-06T01:24:42.843Z,47.33
2022-09-06T01:27:47.159Z,47.19
2022-09-06T01:30:19.731Z,47.30
2022-09-06T01:32:56.202Z,47.43
2022-09-06T01:35:30.006Z,47.28
2022-09-06T01:37:59.824Z,47.33
2022-09-06T01:40:28.905Z,47.57
2022-09-06T01:42:59.652Z,47.70
2022-09-06T01:45:39.657Z,47.73
2022-09-06T01:48:13.795Z,47.52
2022-09-06T01:51:02.984Z,47.79
2022-09-06T01:53:46.271Z,47.85
2022-09-06T01:56:26.578Z,48.14
2022-09-06T01:59:13.164Z,48.28
2022-09-06T02:01:53.380Z,48.41
2022-09-06T02:04:28.112Z,48.41
2022-09-06T02:07:04.416Z,48.29
2022-09-06T02:09:41.035Z,48.56
2022-09-06T02:12:13.452Z,48.69
2022-09-06T02:14:46.673Z,48.86
2022-09-06T02:17:21.543Z,49.02
2022-09-06T02:19:55.003Z,48.99
2022-09-06T02:22:28.544Z,49.10
2022-09-06T02:24:59.926Z,49.44
2022-09-06T02:27:31.043Z,49.60
2022-09-06T02:30:02.967Z,49.72
2022-09-06T02:32:36.743Z,50.17
2022-09-06T02:35:10.548Z,50.15
2022-09-06T02:37:39.493Z,50.12
2022-09-06T02:40:10.280Z,50.55
2022-09-06T02:42:40.617Z,50.32
2022-09-06T02:45:10.344Z,50.83
2022-09-06T02:47:40.377Z,51.08
2022-09-06T02:50:09.941Z,51.23
2022-09-06T02:52:38.584Z,51.64
2022-09-06T02:55:08.707Z,52.05
2022-09-06T02:57:37.351Z,52.18
2022-09-06T03:00:06.639Z,52.34
2022-09-06T03:02:35.366Z,52.30
2022-09-06T03:05:05.928Z,52.83
2022-09-06T03:07:34.581Z,53.16
2022-09-06T03:10:03.268Z,53.27
2022-09-06T03:12:31.979Z,53.70
2022-09-06T03:15:00.603Z,53.97
2022-09-06T03:17:29.245Z,53.95
2022-09-06T03:19:57.975Z,54.37
2022-09-06T03:22:28.012Z,54.59
2022-09-06T03:24:56.650Z,54.97
2022-09-06T03:27:25.814Z,55.04
2022-09-06T03:29:54.487Z,55.29
2022-09-06T03:32:23.139Z,55.54
2022-09-06T03:34:51.956Z,55.59
2022-09-06T03:37:20.636Z,55.64
2022-09-06T03:39:50.723Z,56.01
2022-09-06T03:42:19.478Z,56.21
2022-09-06T03:44:48.070Z,56.11
2022-09-06T03:47:19.567Z,56.50
2022-09-06T03:49:48.887Z,56.46
2022-09-06T03:52:17.483Z,56.89
2022-09-06T03:54:46.120Z,57.13
2022-09-06T03:57:16.207Z,56.74
2022-09-06T03:59:44.824Z,57.19
2022-09-06T04:02:13.491Z,57.34
2022-09-06T04:04:43.534Z,57.41
2022-09-06T04:07:12.163Z,57.59
2022-09-06T04:09:41.259Z,57.32
2022-09-06T04:12:09.940Z,57.61
2022-09-06T04:14:39.948Z,57.86
2022-09-06T04:17:08.697Z,58.04
2022-09-06T04:19:37.312Z,58.62
2022-09-06T04:22:06.070Z,58.41
2022-09-06T04:24:34.710Z,58.74
2022-09-06T04:27:03.346Z,58.37
2022-09-06T04:29:32.093Z,58.84
2022-09-06T04:32:02.221Z,58.72
2022-09-06T04:34:31.090Z,59.05
2022-09-06T04:36:59.748Z,59.07
2022-09-06T04:39:28.438Z,59.03
2022-09-06T04:41:57.135Z,58.84
2022-09-06T04:44:25.792Z,59.00
2022-09-06T04:47:09.425Z,59.17
2022-09-06T04:49:38.413Z,59.25
2022-09-06T04:52:07.069Z,59.31
2022-09-06T04:54:36.538Z,59.63
2022-09-06T04:57:05.712Z,59.99
2022-09-06T04:59:34.695Z,59.79
2022-09-06T05:02:05.258Z,60.00
2022-09-06T05:04:33.895Z,60.09
2022-09-06T05:07:04.701Z,60.00
2022-09-06T05:09:33.501Z,60.00
2022-09-06T05:12:02.429Z,60.47
2022-09-06T05:14:31.200Z,60.43
2022-09-06T05:17:00.165Z,60.05
2022-09-06T05:19:30.188Z,60.27
2022-09-06T05:21:58.812Z,60.31
2022-09-06T05:24:27.639Z,60.19
2022-09-06T05:26:56.283Z,59.77
2022-09-06T05:29:29.963Z,59.83
2022-09-06T05:31:59.127Z,59.71
2022-09-06T05:34:29.123Z,59.98
2022-09-06T05:36:57.726Z,59.72
2022-09-06T05:39:26.426Z,59.56
2022-09-06T05:41:55.071Z,60.06
2022-09-06T05:44:23.716Z,59.66
2022-09-06T05:46:52.537Z,59.97
2022-09-06T05:49:21.185Z,60.66
2022-09-06T05:51:53.194Z,60.54
2022-09-06T05:54:22.092Z,59.98
2022-09-06T05:56:51.680Z,60.17
2022-09-06T05:59:20.368Z,59.51
2022-09-06T06:01:50.685Z,59.82
2022-09-06T06:04:19.728Z,59.71
2022-09-06T06:06:49.109Z,59.47
2022-09-06T06:09:19.126Z,59.38
2022-09-06T06:11:47.757Z,59.37
2022-09-06T06:14:16.418Z,59.64
2022-09-06T06:16:45.075Z,59.86
2022-09-06T06:19:15.435Z,59.74
2022-09-06T06:21:44.208Z,59.80
2022-09-06T06:24:12.836Z,59.67
2022-09-06T06:26:42.998Z,59.74
2022-09-06T06:29:11.802Z,59.37
2022-09-06T06:31:40.782Z,59.06
2022-09-06T06:34:09.882Z,59.62
2022-09-06T06:36:38.718Z,59.21
2022-09-06T06:39:09.598Z,59.05
2022-09-06T06:41:38.252Z,58.93
2022-09-06T06:44:08.241Z,58.75
2022-09-06T06:46:39.055Z,58.56
2022-09-06T06:49:07.692Z,59.52
2022-09-06T06:51:38.262Z,58.57
2022-09-06T06:54:07.281Z,63.62
2022-09-06T06:56:38.208Z,59.00
2022-09-06T06:59:09.135Z,58.86
2022-09-06T07:01:38.462Z,58.77
2022-09-06T07:04:08.732Z,58.59
2022-09-06T07:12:27.230Z,58.50
2022-09-06T07:14:57.331Z,57.81
2022-09-06T07:17:25.938Z,58.25
2022-09-06T07:22:43.859Z,57.96
2022-09-06T07:25:21.006Z,58.22
2022-09-06T07:27:50.471Z,57.54
2022-09-06T07:30:21.444Z,57.86
2022-09-06T07:32:50.448Z,57.62
2022-09-06T07:35:20.486Z,57.68
2022-09-06T07:37:56.748Z,58.32
2022-09-06T07:40:25.632Z,57.32
2022-09-06T07:42:54.819Z,57.57
2022-09-06T07:45:24.962Z,57.75
2022-09-06T07:47:59.065Z,56.86
2022-09-06T07:53:15.241Z,57.32
2022-09-06T07:55:44.408Z,56.95
2022-09-06T07:58:13.061Z,57.15
2022-09-06T08:00:43.467Z,57.16
2022-09-06T08:03:12.457Z,56.92
2022-09-06T08:11:18.568Z,56.58
2022-09-06T08:13:50.724Z,56.10
2022-09-06T08:16:20.786Z,56.66
2022-09-06T08:18:52.825Z,56.28
2022-09-06T08:21:23.634Z,56.26
2022-09-06T08:23:55.578Z,57.22
2022-09-06T08:26:25.957Z,56.49
2022-09-06T08:28:56.368Z,56.64
2022-09-06T08:31:26.587Z,56.39
2022-09-06T08:33:55.840Z,56.70
2022-09-06T08:36:27.285Z,56.04
2022-09-06T08:38:56.215Z,56.27
2022-09-06T08:41:27.650Z,56.02
2022-09-06T08:46:57.010Z,56.33
2022-09-06T08:49:28.145Z,56.34
2022-09-06T08:52:10.262Z,55.40
2022-09-06T08:54:43.718Z,55.03
2022-09-06T08:57:25.683Z,55.34
2022-09-06T09:00:01.119Z,54.90
2022-09-06T09:02:45.543Z,54.86
2022-09-06T09:05:24.141Z,54.85
2022-09-06T09:08:03.944Z,54.85
2022-09-06T09:10:39.703Z,54.96
2022-09-06T09:13:11.085Z,54.62
2022-09-06T09:15:40.541Z,54.11
2022-09-06T09:18:10.820Z,53.96
2022-09-06T09:20:40.077Z,54.10
2022-09-06T09:23:08.792Z,54.17
2022-09-06T09:25:39.985Z,53.59
2022-09-06T09:28:15.530Z,53.35
2022-09-06T09:30:50.107Z,53.51
2022-09-06T09:33:29.421Z,53.24
2022-09-06T09:36:00.735Z,53.64
2022-09-06T09:38:32.814Z,53.15
2022-09-06T09:41:02.989Z,53.00
2022-09-06T09:43:33.312Z,52.31
2022-09-06T09:46:31.002Z,51.90
2022-09-06T09:49:08.493Z,51.83
2022-09-06T09:51:39.003Z,51.37
2022-09-06T09:54:10.113Z,52.24
2022-09-06T09:56:44.707Z,51.40
2022-09-06T09:59:23.692Z,51.79
2022-09-06T10:01:54.935Z,52.38
2022-09-06T10:04:46.447Z,52.69
2022-09-06T10:07:18.095Z,51.94
2022-09-06T10:09:48.755Z,51.50
2022-09-06T10:12:19.660Z,51.00
2022-09-06T10:14:50.258Z,50.99
2022-09-06T10:17:29.085Z,50.67
2022-09-06T10:20:03.132Z,49.96
2022-09-06T10:22:32.549Z,50.82
2022-09-06T10:25:27.609Z,50.48
2022-09-06T10:28:27.509Z,49.55
2022-09-06T10:31:09.446Z,49.92
2022-09-06T10:33:47.058Z,49.98
2022-09-06T10:36:21.891Z,49.72
2022-09-06T10:38:56.898Z,49.39
2022-09-06T10:41:35.663Z,49.71
2022-09-06T10:44:15.822Z,49.74
2022-09-06T10:46:47.061Z,49.42
2022-09-06T10:49:19.759Z,49.86
2022-09-06T10:51:55.367Z,49.58
2022-09-06T10:54:25.406Z,49.88
2022-09-06T10:57:00.176Z,49.87
2022-09-06T11:02:15.590Z,49.28
2022-09-06T11:07:41.750Z,49.18
2022-09-06T11:10:18.025Z,48.53
2022-09-06T11:12:55.559Z,48.59
2022-09-06T11:15:27.856Z,48.78
2022-09-06T11:18:02.527Z,47.25
2022-09-06T11:20:37.126Z,46.73
2022-09-06T11:23:45.956Z,46.26
2022-09-06T11:26:34.636Z,46.59
2022-09-06T11:29:07.673Z,46.93
2022-09-06T11:34:41.254Z,46.56
2022-09-06T11:37:25.495Z,46.75
2022-09-06T11:43:17.141Z,47.26
2022-09-06T11:45:49.547Z,47.17
2022-09-06T11:48:50.764Z,47.21
2022-09-06T11:51:36.139Z,47.59
2022-09-06T11:54:22.020Z,47.42
2022-09-06T11:56:59.568Z,48.44
2022-09-06T11:59:44.164Z,48.39
2022-09-06T12:02:31.727Z,47.91
2022-09-06T12:05:19.920Z,47.72
2022-09-06T12:08:15.575Z,48.66
2022-09-06T12:10:56.677Z,47.53
2022-09-06T12:13:40.780Z,48.57
2022-09-06T12:16:12.762Z,49.15
2022-09-06T12:19:02.238Z,47.71
2022-09-06T12:21:43.947Z,47.85
2022-09-06T12:24:45.808Z,47.60
2022-09-06T12:27:17.016Z,48.36
2022-09-06T12:29:56.466Z,48.19
2022-09-06T12:32:36.569Z,49.04
2022-09-06T12:37:58.565Z,48.21
2022-09-06T12:40:30.575Z,48.09
2022-09-06T12:43:00.176Z,47.98
2022-09-06T12:45:30.562Z,47.95
2022-09-06T12:48:08.623Z,47.50
2022-09-06T12:50:37.820Z,47.27
2022-09-06T12:53:24.624Z,46.76
2022-09-06T12:56:05.538Z,46.68
2022-09-06T12:58:35.089Z,46.69
2022-09-06T13:01:13.009Z,47.25
2022-09-06T13:03:46.351Z,47.60
2022-09-06T13:06:26.643Z,47.14
2022-09-06T13:08:58.179Z,47.24
2022-09-06T13:11:31.938Z,46.87
2022-09-06T13:14:01.981Z,46.35
2022-09-06T13:16:38.497Z,45.67
2022-09-06T13:19:15.470Z,47.11
2022-09-06T13:21:46.229Z,46.42
2022-09-06T13:24:24.148Z,46.59
2022-09-06T13:26:54.439Z,46.97
2022-09-06T13:29:25.195Z,47.05
2022-09-06T13:31:57.084Z,46.81
2022-09-06T13:34:27.797Z,46.93
2022-09-06T13:37:02.779Z,46.13
2022-09-06T13:39:34.335Z,46.71
2022-09-06T13:42:07.504Z,46.83
2022-09-06T13:44:38.111Z,46.16
2022-09-06T13:47:08.603Z,46.43
2022-09-06T13:49:37.099Z,46.02
2022-09-06T13:52:06.060Z,44.51
2022-09-06T13:54:35.286Z,44.45
2022-09-06T13:57:04.311Z,44.08
2022-09-06T13:59:33.511Z,43.78
2022-09-06T14:02:05.100Z,43.80
2022-09-06T14:04:36.296Z,43.43
2022-09-06T14:07:05.624Z,43.93
2022-09-06T14:09:34.408Z,44.29
2022-09-06T14:12:03.404Z,43.99
2022-09-06T14:14:32.124Z,41.61
2022-09-06T14:17:01.146Z,40.87
2022-09-06T14:19:30.050Z,40.54
2022-09-06T14:22:00.252Z,41.50
2022-09-06T14:24:29.064Z,42.14
2022-09-06T14:26:57.889Z,42.94
2022-09-06T14:29:26.439Z,42.91
2022-09-06T14:31:55.066Z,42.89
2022-09-06T14:34:25.997Z,43.44
2022-09-06T14:36:58.778Z,43.35
2022-09-06T14:39:29.110Z,43.22
2022-09-06T14:41:57.826Z,43.37
2022-09-06T14:44:26.750Z,43.21
2022-09-06T14:46:55.638Z,43.63
2022-09-06T14:49:24.816Z,44.05
2022-09-06T14:51:53.995Z,44.59
2022-09-06T14:54:26.166Z,44.55
2022-09-06T14:56:59.303Z,45.06
2022-09-06T14:59:28.228Z,44.65
2022-09-06T15:01:57.503Z,44.31
2022-09-06T15:04:27.651Z,49.50
2022-09-06T15:06:56.711Z,45.53
2022-09-06T15:09:25.429Z,48.93
2022-09-06T15:11:54.798Z,48.67
2022-09-06T15:14:26.757Z,46.39
2022-09-06T15:16:58.197Z,49.21
2022-09-06T15:19:28.428Z,46.89
2022-09-06T15:21:58.399Z,48.12
2022-09-06T15:24:27.486Z,46.91
2022-09-06T15:26:56.582Z,47.15
2022-09-06T15:29:34.098Z,47.44
2022-09-06T15:32:04.884Z,47.44
2022-09-06T15:34:37.156Z,48.10
2022-09-06T15:37:09.933Z,48.00
2022-09-06T15:39:45.691Z,48.63
2022-09-06T15:42:20.017Z,48.84
2022-09-06T15:44:50.740Z,48.77
2022-09-06T15:47:20.454Z,50.06
2022-09-06T15:49:54.591Z,50.87
2022-09-06T15:52:26.223Z,48.91
2022-09-06T15:55:33.882Z,50.42
2022-09-06T15:58:26.980Z,51.49
2022-09-06T16:01:19.496Z,50.36
2022-09-06T16:03:57.120Z,50.90
2022-09-06T16:06:28.807Z,51.04
2022-09-06T16:09:07.085Z,50.13
2022-09-06T16:11:39.868Z,50.01
2022-09-06T16:14:18.426Z,51.02
2022-09-06T16:16:56.974Z,49.90
2022-09-06T16:19:34.906Z,50.30
2022-09-06T16:22:16.196Z,50.80
2022-09-06T16:24:57.269Z,49.82
2022-09-06T16:27:33.033Z,50.08
2022-09-06T16:30:11.482Z,49.70
2022-09-06T16:32:51.994Z,48.46
2022-09-06T16:35:24.942Z,51.26
2022-09-06T16:38:09.174Z,51.09
2022-09-06T16:40:50.034Z,50.66
2022-09-06T16:43:23.095Z,51.06
2022-09-06T16:46:13.224Z,50.21
2022-09-06T16:48:59.771Z,50.73
2022-09-06T16:51:41.595Z,47.97
2022-09-06T16:54:23.891Z,51.03
2022-09-06T16:57:02.367Z,49.78
2022-09-06T16:59:38.664Z,51.24
2022-09-06T17:02:18.700Z,50.25
2022-09-06T17:05:03.278Z,50.49
2022-09-06T17:07:39.505Z,50.11
2022-09-06T17:10:15.402Z,50.69
2022-09-06T17:12:45.092Z,48.30
2022-09-06T17:15:22.498Z,49.54
2022-09-06T17:17:53.739Z,49.70
2022-09-06T17:20:33.794Z,50.70
2022-09-06T17:23:19.216Z,51.10
2022-09-06T17:25:57.491Z,51.24
2022-09-06T17:28:47.051Z,50.85
2022-09-06T17:31:26.009Z,51.63
2022-09-06T17:34:04.867Z,51.72
2022-09-06T17:36:40.872Z,51.08
2022-09-06T17:39:37.816Z,51.03
2022-09-06T17:42:11.223Z,51.07
2022-09-06T17:44:44.425Z,52.02
2022-09-06T17:47:29.178Z,49.60
2022-09-06T17:50:01.129Z,47.96
2022-09-06T17:52:36.587Z,48.12
2022-09-06T17:55:23.342Z,48.34
2022-09-06T17:58:06.072Z,47.93
2022-09-06T18:00:57.086Z,47.92
2022-09-06T18:03:34.197Z,48.48
2022-09-06T18:06:14.290Z,48.27
2022-09-06T18:08:59.943Z,47.90
2022-09-06T18:11:34.278Z,50.26
2022-09-06T18:14:07.938Z,50.40
2022-09-06T18:16:40.352Z,50.72
2022-09-06T18:19:13.018Z,49.14
2022-09-06T18:21:49.322Z,48.36
2022-09-06T18:24:27.899Z,47.68
2022-09-06T18:26:59.927Z,48.46
2022-09-06T18:29:41.231Z,47.89
2022-09-06T18:32:16.795Z,48.50
2022-09-06T18:34:48.698Z,47.79
2022-09-06T18:37:30.436Z,48.46
2022-09-06T18:40:08.363Z,48.47
2022-09-06T18:42:49.051Z,47.93
2022-09-06T18:45:23.655Z,48.31
2022-09-06T18:48:08.611Z,48.29
2022-09-06T18:50:46.551Z,48.94
2022-09-06T18:53:25.711Z,48.72
2022-09-06T18:55:58.839Z,49.06
2022-09-06T18:58:31.020Z,49.23
2022-09-06T19:01:09.015Z,49.27
2022-09-06T19:03:54.190Z,49.37
2022-09-06T19:06:29.901Z,49.01
2022-09-06T19:09:19.654Z,49.37
2022-09-06T19:12:16.155Z,49.54
2022-09-06T19:14:51.717Z,48.99
2022-09-06T19:17:27.717Z,49.32
2022-09-06T19:20:01.975Z,48.86
2022-09-06T19:22:31.223Z,48.97
2022-09-06T19:25:00.032Z,48.86
2022-09-06T19:27:30.295Z,48.94
2022-09-06T19:29:59.453Z,48.79
2022-09-06T19:32:28.213Z,49.56
2022-09-06T19:34:56.918Z,48.89
2022-09-06T19:37:25.707Z,49.09
2022-09-06T19:39:54.924Z,49.22
2022-09-06T19:42:23.801Z,48.95
2022-09-06T19:44:53.879Z,49.16
2022-09-06T19:47:22.555Z,48.82
2022-09-06T19:49:51.252Z,48.84
2022-09-06T19:52:20.218Z,48.89
2022-09-06T19:54:49.105Z,49.28
2022-09-06T19:57:18.028Z,48.95
2022-09-06T19:59:46.744Z,48.80
2022-09-06T20:02:16.943Z,48.70
2022-09-06T20:04:46.945Z,48.79
2022-09-06T20:07:15.779Z,49.21
2022-09-06T20:09:44.520Z,49.22
2022-09-06T20:12:13.419Z,49.42
2022-09-06T20:14:42.312Z,49.54
2022-09-06T20:17:32.141Z,49.08
2022-09-06T20:20:01.494Z,49.36
2022-09-06T20:22:30.226Z,49.85
2022-09-06T20:24:58.941Z,49.89
2022-09-06T20:27:27.802Z,49.07
2022-09-06T20:29:56.540Z,49.46
2022-09-06T20:32:25.344Z,49.50
2022-09-06T20:34:54.105Z,49.02
2022-09-06T20:37:24.476Z,49.68
2022-09-06T20:39:53.307Z,50.01
2022-09-06T20:42:22.135Z,49.88
2022-09-06T20:44:50.950Z,49.41
2022-09-06T20:47:19.833Z,50.55
2022-09-06T20:49:49.100Z,50.31
2022-09-06T20:52:18.099Z,50.42
2022-09-06T20:54:48.256Z,50.43
2022-09-06T20:57:17.999Z,50.38
2022-09-06T20:59:46.714Z,50.24
2022-09-06T21:02:15.540Z,50.50
2022-09-06T21:04:44.331Z,50.37
2022-09-06T21:07:13.097Z,50.40
2022-09-06T21:09:41.708Z,50.23
2022-09-06T21:12:12.027Z,50.05
2022-09-06T21:14:40.663Z,50.49
2022-09-06T21:17:09.329Z,50.07
2022-09-06T21:19:39.418Z,49.74
2022-09-06T21:22:08.132Z,50.38
2022-09-06T21:24:36.866Z,49.83
2022-09-06T21:27:06.869Z,49.80
2022-09-06T21:29:36.932Z,50.20
2022-09-06T21:32:05.679Z,49.91
2022-09-06T21:34:34.667Z,50.33
2022-09-06T21:37:03.424Z,50.27
2022-09-06T21:39:32.136Z,50.27
2022-09-06T21:42:00.921Z,50.28
2022-09-06T21:44:29.579Z,50.51
2022-09-06T21:47:00.244Z,50.43
2022-09-06T21:49:28.991Z,50.55
2022-09-06T21:51:57.654Z,50.40
2022-09-06T21:54:26.309Z,50.61
2022-09-06T21:56:55.790Z,50.46
2022-09-06T21:59:24.563Z,50.21
2022-09-06T22:01:54.439Z,50.51
2022-09-06T22:04:24.939Z,50.26
2022-09-06T22:06:53.835Z,50.02
2022-09-06T22:09:22.594Z,50.03
2022-09-06T22:11:52.892Z,49.98
2022-09-06T22:14:21.568Z,49.40
2022-09-06T22:16:52.056Z,49.98
2022-09-06T22:19:20.709Z,50.07
2022-09-06T22:21:53.457Z,50.75
2022-09-06T22:24:22.131Z,51.61
2022-09-06T22:26:50.808Z,52.60
2022-09-06T22:29:19.531Z,53.76
2022-09-06T22:31:48.255Z,52.76
2022-09-06T22:34:17.279Z,52.64
2022-09-06T22:36:46.098Z,52.71
2022-09-06T22:39:16.435Z,52.41
2022-09-06T22:41:45.376Z,52.20
2022-09-06T22:44:14.524Z,51.84
2022-09-06T22:46:43.252Z,51.91
2022-09-06T22:49:12.395Z,51.93
2022-09-06T22:51:41.155Z,52.08
2022-09-06T22:54:10.028Z,51.32
2022-09-06T22:56:40.132Z,51.77
2022-09-06T22:59:08.831Z,51.23
2022-09-06T23:01:39.275Z,51.50
2022-09-06T23:04:08.720Z,51.04
2022-09-06T23:06:38.217Z,51.53
2022-09-06T23:09:07.015Z,51.10
2022-09-06T23:11:35.857Z,51.21
2022-09-06T23:14:06.182Z,51.00
2022-09-06T23:16:34.905Z,51.32
2022-09-06T23:19:03.594Z,50.94
2022-09-06T23:21:32.911Z,50.83
2022-09-06T23:24:01.595Z,50.81
2022-09-06T23:26:32.308Z,50.77
2022-09-06T23:29:01.696Z,50.58
2022-09-06T23:31:32.756Z,50.73
2022-09-06T23:34:03.307Z,50.94
2022-09-06T23:36:33.208Z,50.79
2022-09-06T23:39:02.655Z,50.69
2022-09-06T23:41:31.938Z,50.92
2022-09-06T23:44:01.578Z,50.62
2022-09-06T23:46:32.245Z,51.22
2022-09-06T23:49:01.008Z,50.88
2022-09-06T23:51:29.680Z,50.88
2022-09-06T23:53:58.406Z,51.01
2022-09-06T23:56:27.291Z,50.99
2022-09-06T23:58:55.968Z,51.56
